createdAt,value
2022-12-08T00:00:05.162Z,28.20
2022-12-08T00:02:35.260Z,25.23
2022-12-08T00:05:16.352Z,24.40
2022-12-08T00:07:57.849Z,23.65
2022-12-08T00:10:47.890Z,26.88
2022-12-08T00:13:03.252Z,26.50
2022-12-08T00:15:25.848Z,27.20
2022-12-08T00:17:48.397Z,27.50
2022-12-08T00:20:11.318Z,25.90
2022-12-08T00:22:33.966Z,26.10
2022-12-08T00:24:56.543Z,29.80
2022-12-08T00:27:19.205Z,29.58
2022-12-08T00:29:44.620Z,29.48
2022-12-08T00:32:07.375Z,31.98
2022-12-08T00:34:31.461Z,31.52
2022-12-08T00:36:54.036Z,36.03
2022-12-08T00:39:17.866Z,34.97
2022-12-08T00:41:59.369Z,34.05
2022-12-08T00:44:22.195Z,30.98
2022-12-08T00:46:45.989Z,36.58
2022-12-08T00:49:08.669Z,42.27
2022-12-08T00:51:32.016Z,46.13
2022-12-08T00:53:54.619Z,47.85
2022-12-08T00:56:17.257Z,49.83
2022-12-08T00:58:39.912Z,55.17
2022-12-08T01:01:02.548Z,53.93
2022-12-08T01:03:25.755Z,60.25
2022-12-08T01:05:48.478Z,60.33
2022-12-08T01:08:11.260Z,64.65
2022-12-08T01:10:37.769Z,64.80
2022-12-08T01:13:00.359Z,59.63
2022-12-08T01:15:22.971Z,59.85
2022-12-08T01:17:45.671Z,58.00
2022-12-08T01:20:08.903Z,55.25
2022-12-08T01:22:33.397Z,49.33
2022-12-08T01:24:55.962Z,54.57
2022-12-08T01:27:18.600Z,58.38
2022-12-08T01:29:41.127Z,55.53
2022-12-08T01:32:03.712Z,49.35
2022-12-08T01:34:26.276Z,46.53
2022-12-08T01:36:48.823Z,43.93
2022-12-08T01:39:16.031Z,56.35
2022-12-08T01:41:39.416Z,47.45
2022-12-08T01:44:13.746Z,45.20
2022-12-08T01:46:38.965Z,45.33
2022-12-08T01:49:12.773Z,48.23
2022-12-08T01:51:42.172Z,42.92
2022-12-08T01:54:07.194Z,39.83
2022-12-08T01:56:52.339Z,41.00
2022-12-08T01:59:15.378Z,40.55
2022-12-08T02:01:38.649Z,41.87
2022-12-08T02:04:04.255Z,45.70
2022-12-08T02:06:30.483Z,42.42
2022-12-08T02:08:55.295Z,39.85
2022-12-08T02:11:18.170Z,41.25
2022-12-08T02:13:43.244Z,41.17
2022-12-08T02:16:24.221Z,40.88
2022-12-08T02:19:29.882Z,40.33
2022-12-08T02:21:50.289Z,39.85
2022-12-08T02:24:24.788Z,44.47
2022-12-08T02:26:50.115Z,38.60
2022-12-08T02:29:39.874Z,35.47
2022-12-08T02:32:21.021Z,37.60
2022-12-08T02:35:02.487Z,40.50
2022-12-08T02:37:32.648Z,36.92
2022-12-08T02:40:26.114Z,37.13
2022-12-08T02:42:55.326Z,33.80
2022-12-08T02:45:29.216Z,37.85
2022-12-08T02:47:52.759Z,42.78
2022-12-08T02:50:15.809Z,53.90
2022-12-08T02:52:43.746Z,55.33
2022-12-08T02:55:13.421Z,48.53
2022-12-08T02:58:00.236Z,54.08
2022-12-08T03:00:25.420Z,46.22
2022-12-08T03:03:07.719Z,50.47
2022-12-08T03:06:07.052Z,53.57
2022-12-08T03:09:01.933Z,51.42
2022-12-08T03:11:27.820Z,53.33
2022-12-08T03:13:58.068Z,54.00
2022-12-08T03:16:25.744Z,51.97
2022-12-08T03:18:54.489Z,49.07
2022-12-08T03:21:20.310Z,58.42
2022-12-08T03:23:46.429Z,59.15
2022-12-08T03:26:14.641Z,56.13
2022-12-08T03:28:38.312Z,56.22
2022-12-08T03:31:07.254Z,59.80
2022-12-08T03:33:35.153Z,58.63
2022-12-08T03:36:01.769Z,57.95
2022-12-08T03:38:24.557Z,58.38
2022-12-08T03:41:07.202Z,53.78
2022-12-08T03:43:29.904Z,52.07
2022-12-08T03:45:52.434Z,54.95
2022-12-08T03:48:15.053Z,54.75
2022-12-08T03:50:37.745Z,52.30
2022-12-08T03:53:00.311Z,55.05
2022-12-08T03:55:22.852Z,58.60
2022-12-08T03:57:45.419Z,51.63
2022-12-08T04:00:09.849Z,53.53
2022-12-08T04:02:32.507Z,55.85
2022-12-08T04:04:55.104Z,55.05
2022-12-08T04:07:17.784Z,58.40
2022-12-08T04:09:41.712Z,56.38
2022-12-08T04:12:08.055Z,53.05
2022-12-08T04:14:30.672Z,54.40
2022-12-08T04:16:53.326Z,54.88
2022-12-08T04:19:16.928Z,52.60
2022-12-08T04:21:39.517Z,52.28
2022-12-08T04:24:02.614Z,52.15
2022-12-08T04:26:25.425Z,56.55
2022-12-08T04:28:48.485Z,60.83
2022-12-08T04:31:11.289Z,57.90
2022-12-08T04:33:35.282Z,53.10
2022-12-08T04:35:58.205Z,58.92
2022-12-08T04:38:21.143Z,57.13
2022-12-08T04:40:43.807Z,61.92
2022-12-08T04:43:06.601Z,57.07
2022-12-08T04:45:29.176Z,63.80
2022-12-08T04:47:51.813Z,61.35
2022-12-08T04:50:14.562Z,58.38
2022-12-08T04:52:37.337Z,62.47
2022-12-08T04:54:59.970Z,58.20
2022-12-08T04:57:22.593Z,57.42
2022-12-08T04:59:46.284Z,60.78
2022-12-08T05:02:09.241Z,58.38
2022-12-08T05:04:32.049Z,61.70
2022-12-08T05:06:54.632Z,63.33
2022-12-08T05:09:17.370Z,61.90
2022-12-08T05:11:46.927Z,62.50
2022-12-08T05:14:13.585Z,62.53
2022-12-08T05:16:37.471Z,65.25
2022-12-08T05:19:00.113Z,69.70
2022-12-08T05:21:22.796Z,69.97
2022-12-08T05:23:45.479Z,68.28
2022-12-08T05:26:08.064Z,65.78
2022-12-08T05:28:45.852Z,66.55
2022-12-08T05:31:08.587Z,61.97
2022-12-08T05:33:31.125Z,65.65
2022-12-08T05:35:53.776Z,61.53
2022-12-08T05:38:16.291Z,60.75
2022-12-08T05:40:40.125Z,56.38
2022-12-08T05:43:02.580Z,59.13
2022-12-08T05:45:25.314Z,55.42
2022-12-08T05:47:47.818Z,56.97
2022-12-08T05:50:10.755Z,62.08
2022-12-08T05:52:33.421Z,64.40
2022-12-08T05:54:56.036Z,59.80
2022-12-08T05:57:18.565Z,59.45
2022-12-08T05:59:41.410Z,64.25
2022-12-08T06:02:04.047Z,59.47
2022-12-08T06:04:26.672Z,60.67
2022-12-08T06:06:49.510Z,63.27
2022-12-08T06:09:13.109Z,61.60
2022-12-08T06:11:36.078Z,58.83
2022-12-08T06:13:59.400Z,60.10
2022-12-08T06:16:22.897Z,62.17
2022-12-08T06:18:46.137Z,60.37
2022-12-08T06:21:11.497Z,61.45
2022-12-08T06:23:34.633Z,62.13
2022-12-08T06:26:05.910Z,59.95
2022-12-08T06:28:29.889Z,57.35
2022-12-08T06:30:52.504Z,61.10
2022-12-08T06:33:15.194Z,62.08
2022-12-08T06:35:37.854Z,65.20
2022-12-08T06:38:00.693Z,57.40
2022-12-08T06:40:23.547Z,54.55
2022-12-08T06:42:47.326Z,62.53
2022-12-08T06:45:11.582Z,54.15
2022-12-08T06:47:35.124Z,61.60
2022-12-08T06:49:58.421Z,57.35
2022-12-08T06:52:22.555Z,59.28
2022-12-08T06:54:45.426Z,61.83
2022-12-08T06:57:08.253Z,64.18
2022-12-08T06:59:31.099Z,57.85
2022-12-08T07:01:54.146Z,59.28
2022-12-08T07:04:18.754Z,55.35
2022-12-08T07:06:41.821Z,55.57
2022-12-08T07:09:04.616Z,64.90
2022-12-08T07:11:27.276Z,57.90
2022-12-08T07:13:51.249Z,60.63
2022-12-08T07:16:14.242Z,59.20
2022-12-08T07:18:39.116Z,60.47
2022-12-08T07:21:11.106Z,65.57
2022-12-08T07:23:34.293Z,59.40
2022-12-08T07:26:00.909Z,60.08
2022-12-08T07:28:24.263Z,61.17
2022-12-08T07:30:46.838Z,55.37
2022-12-08T07:33:09.737Z,60.53
2022-12-08T07:35:34.725Z,55.05
2022-12-08T07:37:57.954Z,51.38
2022-12-08T07:40:20.887Z,54.70
2022-12-08T07:42:43.971Z,54.33
2022-12-08T07:45:08.564Z,57.28
2022-12-08T07:47:32.546Z,56.75
2022-12-08T07:49:55.734Z,62.95
2022-12-08T07:52:18.689Z,61.50
2022-12-08T07:54:41.743Z,61.67
2022-12-08T07:57:06.173Z,58.00
2022-12-08T07:59:29.232Z,58.58
2022-12-08T08:02:13.204Z,62.53
2022-12-08T08:04:35.611Z,55.22
2022-12-08T08:06:58.523Z,59.60
2022-12-08T08:09:21.556Z,55.72
2022-12-08T08:12:01.102Z,55.08
2022-12-08T08:14:27.581Z,53.15
2022-12-08T08:16:50.480Z,54.00
2022-12-08T08:19:13.535Z,65.00
2022-12-08T08:21:45.677Z,64.75
2022-12-08T08:24:09.168Z,62.45
2022-12-08T08:26:32.311Z,58.15
2022-12-08T08:28:55.589Z,54.97
2022-12-08T08:31:18.536Z,55.40
2022-12-08T08:33:41.381Z,53.42
2022-12-08T08:36:08.395Z,58.63
2022-12-08T08:38:31.796Z,48.30
2022-12-08T08:40:54.448Z,49.78
2022-12-08T08:43:36.027Z,50.40
2022-12-08T08:46:01.492Z,42.53
2022-12-08T08:48:25.697Z,44.75
2022-12-08T08:50:49.948Z,46.35
2022-12-08T08:53:13.152Z,52.60
2022-12-08T08:55:38.802Z,56.50
2022-12-08T08:58:01.779Z,53.25
2022-12-08T09:00:24.609Z,56.30
2022-12-08T09:02:47.490Z,58.13
2022-12-08T09:05:10.212Z,58.55
2022-12-08T09:07:32.954Z,62.20
2022-12-08T09:10:01.277Z,59.03
2022-12-08T09:12:25.254Z,57.65
2022-12-08T09:14:48.010Z,56.88
2022-12-08T09:17:10.750Z,48.25
2022-12-08T09:19:33.703Z,43.17
2022-12-08T09:21:56.231Z,50.42
2022-12-08T09:24:18.945Z,52.22
2022-12-08T09:26:43.877Z,50.92
2022-12-08T09:29:07.633Z,52.05
2022-12-08T09:31:30.340Z,47.83
2022-12-08T09:33:53.217Z,46.83
2022-12-08T09:36:15.824Z,49.85
2022-12-08T09:38:39.661Z,42.42
2022-12-08T09:41:04.506Z,46.50
2022-12-08T09:43:52.781Z,44.83
2022-12-08T09:46:17.745Z,43.88
2022-12-08T09:48:46.240Z,44.70
2022-12-08T09:51:56.146Z,45.17
2022-12-08T09:54:25.868Z,49.13
2022-12-08T09:56:51.625Z,44.13
2022-12-08T09:59:29.293Z,49.50
2022-12-08T10:01:52.796Z,51.55
2022-12-08T10:04:45.119Z,47.80
2022-12-08T10:07:17.119Z,46.83
2022-12-08T10:10:05.893Z,48.53
2022-12-08T10:12:51.831Z,47.55
2022-12-08T10:15:42.458Z,48.83
2022-12-08T10:18:14.330Z,43.53
2022-12-08T10:20:40.971Z,43.28
2022-12-08T10:23:12.845Z,45.50
2022-12-08T10:25:41.310Z,48.88
2022-12-08T10:28:04.001Z,41.58
2022-12-08T10:30:26.899Z,46.42
2022-12-08T10:32:51.778Z,47.53
2022-12-08T10:35:20.129Z,45.37
2022-12-08T10:37:57.114Z,47.53
2022-12-08T10:40:20.024Z,47.15
2022-12-08T10:42:52.377Z,47.38
2022-12-08T10:45:26.837Z,48.60
2022-12-08T10:48:09.917Z,48.03
2022-12-08T10:50:41.566Z,49.25
2022-12-08T10:53:44.713Z,45.40
2022-12-08T10:56:15.566Z,45.15
2022-12-08T10:58:41.151Z,42.53
2022-12-08T11:01:11.343Z,44.97
2022-12-08T11:03:50.009Z,41.10
2022-12-08T11:06:32.730Z,42.10
2022-12-08T11:08:58.333Z,41.92
2022-12-08T11:11:29.095Z,44.10
2022-12-08T11:13:52.147Z,44.07
2022-12-08T11:16:17.773Z,44.22
2022-12-08T11:18:55.241Z,46.00
2022-12-08T11:21:19.857Z,41.67
2022-12-08T11:23:46.763Z,38.10
2022-12-08T11:26:26.462Z,41.97
2022-12-08T11:28:49.627Z,32.22
2022-12-08T11:31:29.237Z,34.47
2022-12-08T11:33:53.070Z,36.38
2022-12-08T11:36:16.259Z,36.40
2022-12-08T11:38:46.708Z,39.00
2022-12-08T11:41:16.367Z,31.70
2022-12-08T11:44:10.449Z,33.45
2022-12-08T11:46:57.012Z,38.05
2022-12-08T11:49:20.727Z,33.45
2022-12-08T11:52:02.808Z,33.17
2022-12-08T11:54:28.273Z,31.75
2022-12-08T11:56:57.560Z,34.05
2022-12-08T11:59:32.166Z,30.77
2022-12-08T12:01:56.802Z,34.75
2022-12-08T12:04:43.406Z,34.43
2022-12-08T12:07:12.523Z,32.35
2022-12-08T12:10:03.547Z,33.28
2022-12-08T12:13:00.039Z,34.75
2022-12-08T12:15:37.789Z,39.25
2022-12-08T12:18:29.039Z,32.80
2022-12-08T12:21:13.141Z,30.45
2022-12-08T12:23:43.667Z,37.85
2022-12-08T12:26:09.980Z,29.80
2022-12-08T12:28:49.797Z,34.13
2022-12-08T12:31:15.971Z,32.10
2022-12-08T12:33:39.005Z,33.25
2022-12-08T12:36:06.277Z,30.60
2022-12-08T12:38:55.404Z,36.53
2022-12-08T12:41:25.598Z,32.20
2022-12-08T12:44:13.518Z,36.00
2022-12-08T12:46:36.329Z,32.67
2022-12-08T12:49:37.507Z,32.65
2022-12-08T12:52:00.384Z,32.45
2022-12-08T12:54:24.897Z,33.75
2022-12-08T12:57:14.750Z,28.30
2022-12-08T12:59:54.897Z,32.63
2022-12-08T13:02:26.550Z,32.83
2022-12-08T13:04:58.112Z,33.05
2022-12-08T13:07:33.257Z,35.85
2022-12-08T13:10:26.930Z,34.87
2022-12-08T13:13:17.898Z,31.95
2022-12-08T13:15:47.036Z,31.40
2022-12-08T13:18:25.056Z,28.73
2022-12-08T13:20:52.362Z,31.23
2022-12-08T13:23:23.902Z,32.00
2022-12-08T13:25:48.628Z,32.55
2022-12-08T13:28:29.049Z,34.15
2022-12-08T13:30:57.648Z,36.78
2022-12-08T13:33:38.067Z,33.70
2022-12-08T13:36:25.980Z,33.87
2022-12-08T13:38:56.226Z,34.10
2022-12-08T13:41:34.659Z,31.30
2022-12-08T13:58:44.270Z,34.22
2022-12-08T14:01:21.045Z,33.63
2022-12-08T14:04:12.829Z,31.00
2022-12-08T14:06:37.352Z,30.58
2022-12-08T14:09:08.670Z,32.13
2022-12-08T14:11:41.359Z,34.25
2022-12-08T14:14:08.658Z,34.13
2022-12-08T14:16:43.213Z,31.97
2022-12-08T14:19:19.207Z,28.92
2022-12-08T14:21:41.924Z,32.22
2022-12-08T14:24:04.798Z,30.88
2022-12-08T14:26:33.388Z,34.03
2022-12-08T14:28:56.080Z,34.37
2022-12-08T14:31:18.957Z,35.47
2022-12-08T14:33:41.872Z,34.85
2022-12-08T14:36:04.729Z,33.15
2022-12-08T14:38:27.578Z,35.10
2022-12-08T14:41:05.779Z,31.13
2022-12-08T14:43:30.493Z,34.90
2022-12-08T14:46:00.028Z,32.28
2022-12-08T14:48:27.720Z,34.67
2022-12-08T14:51:15.388Z,30.77
2022-12-08T14:54:05.430Z,32.20
2022-12-08T14:56:38.444Z,33.13
2022-12-08T14:59:19.648Z,34.33
2022-12-08T15:01:43.801Z,38.53
2022-12-08T15:04:12.178Z,35.22
2022-12-08T15:06:35.919Z,38.37
2022-12-08T15:08:59.754Z,33.22
2022-12-08T15:11:22.345Z,37.42
2022-12-08T15:13:46.759Z,38.47
2022-12-08T15:16:26.288Z,41.15
2022-12-08T15:19:04.537Z,37.47
2022-12-08T15:21:30.517Z,39.75
2022-12-08T15:23:53.057Z,35.88
2022-12-08T15:26:24.587Z,38.53
2022-12-08T15:28:47.591Z,35.42
2022-12-08T15:31:11.411Z,36.53
2022-12-08T15:33:34.102Z,40.70
2022-12-08T15:35:56.834Z,37.83
2022-12-08T15:38:23.879Z,38.67
2022-12-08T15:40:46.748Z,38.17
2022-12-08T15:43:11.249Z,41.20
2022-12-08T15:45:33.782Z,41.35
2022-12-08T15:47:56.541Z,40.40
2022-12-08T15:50:21.342Z,45.70
2022-12-08T15:52:44.320Z,38.20
2022-12-08T15:55:07.164Z,30.90
2022-12-08T16:00:51.911Z,43.42
2022-12-08T16:03:42.529Z,39.25
2022-12-08T16:06:56.992Z,40.50
2022-12-08T16:08:56.214Z,39.90
2022-12-08T16:12:05.994Z,37.78
2022-12-08T16:17:19.347Z,40.22
2022-12-08T16:19:42.129Z,42.83
2022-12-08T16:22:45.101Z,43.23
2022-12-08T16:24:47.591Z,43.85
2022-12-08T16:27:59.202Z,39.80
2022-12-08T16:30:06.236Z,43.92
2022-12-08T16:32:29.107Z,43.78
2022-12-08T16:34:52.295Z,40.20
2022-12-08T16:37:19.794Z,39.50
2022-12-08T16:39:45.899Z,41.33
2022-12-08T16:42:37.950Z,39.50
2022-12-08T16:45:05.046Z,37.55
2022-12-08T16:47:28.050Z,36.00
2022-12-08T16:49:50.855Z,40.85
2022-12-08T16:52:13.575Z,41.72
2022-12-08T16:54:36.231Z,44.58
2022-12-08T16:56:58.949Z,39.95
2022-12-08T16:59:21.759Z,41.20
2022-12-08T17:01:44.387Z,40.90
2022-12-08T17:04:30.344Z,41.80
2022-12-08T17:06:52.944Z,40.80
2022-12-08T17:09:15.736Z,42.78
2022-12-08T17:11:42.962Z,38.87
2022-12-08T17:14:07.901Z,41.67
2022-12-08T17:16:30.581Z,38.83
2022-12-08T17:18:54.131Z,41.45
2022-12-08T17:21:18.222Z,40.17
2022-12-08T17:23:41.595Z,42.47
2022-12-08T17:26:04.869Z,40.20
2022-12-08T17:28:58.227Z,44.30
2022-12-08T17:31:12.875Z,44.65
2022-12-08T17:33:36.953Z,45.05
2022-12-08T17:35:59.833Z,41.23
2022-12-08T17:38:23.225Z,42.60
2022-12-08T17:40:46.178Z,42.67
2022-12-08T17:43:08.781Z,43.25
2022-12-08T17:45:31.577Z,49.50
2022-12-08T17:47:54.345Z,48.30
2022-12-08T17:50:17.116Z,50.10
2022-12-08T17:52:39.934Z,46.13
2022-12-08T17:55:03.247Z,47.95
2022-12-08T17:57:26.093Z,46.80
2022-12-08T17:59:49.150Z,49.43
2022-12-08T18:02:12.213Z,49.08
2022-12-08T18:04:34.827Z,45.75
2022-12-08T18:07:00.270Z,53.17
2022-12-08T18:09:23.079Z,47.33
2022-12-08T18:11:46.419Z,43.47
2022-12-08T18:14:10.270Z,45.95
2022-12-08T18:16:33.176Z,43.22
2022-12-08T18:18:55.997Z,40.58
2022-12-08T18:21:23.308Z,43.25
2022-12-08T18:23:46.962Z,42.93
2022-12-08T18:26:11.954Z,43.60
2022-12-08T18:28:35.607Z,41.92
2022-12-08T18:30:58.811Z,40.85
2022-12-08T18:33:22.324Z,41.15
2022-12-08T18:35:45.039Z,43.60
2022-12-08T18:38:07.754Z,43.05
2022-12-08T18:40:30.957Z,43.22
2022-12-08T18:42:53.805Z,41.75
2022-12-08T18:45:22.530Z,43.72
2022-12-08T18:47:45.593Z,41.67
2022-12-08T18:50:11.114Z,40.00
2022-12-08T18:52:34.428Z,39.10
2022-12-08T18:55:06.340Z,37.47
2022-12-08T18:57:30.621Z,37.80
2022-12-08T18:59:54.687Z,41.17
2022-12-08T19:02:18.511Z,40.47
2022-12-08T19:04:44.659Z,38.78
2022-12-08T19:07:07.814Z,41.08
2022-12-08T19:09:31.017Z,40.58
2022-12-08T19:11:55.090Z,38.73
2022-12-08T19:14:21.372Z,39.97
2022-12-08T19:16:47.088Z,39.42
2022-12-08T19:19:09.952Z,40.38
2022-12-08T19:21:33.279Z,39.97
2022-12-08T19:23:58.572Z,41.73
2022-12-08T19:26:21.993Z,40.53
2022-12-08T19:28:44.840Z,39.70
2022-12-08T19:31:08.742Z,42.35
2022-12-08T19:33:31.882Z,42.85
2022-12-08T19:35:54.846Z,43.07
2022-12-08T19:38:17.786Z,39.70
2022-12-08T19:41:03.462Z,41.88
2022-12-08T19:43:45.037Z,42.15
2022-12-08T19:46:08.677Z,46.95
2022-12-08T19:48:31.831Z,47.13
2022-12-08T19:50:54.650Z,45.97
2022-12-08T19:53:17.521Z,51.15
2022-12-08T19:55:40.929Z,42.88
2022-12-08T19:58:06.999Z,44.85
2022-12-08T20:00:32.140Z,44.20
2022-12-08T20:02:56.945Z,45.38
2022-12-08T20:05:20.034Z,41.35
2022-12-08T20:07:42.887Z,42.38
2022-12-08T20:10:09.261Z,45.42
2022-12-08T20:12:32.191Z,42.97
2022-12-08T20:14:55.027Z,47.75
2022-12-08T20:17:17.640Z,42.75
2022-12-08T20:19:41.341Z,47.22
2022-12-08T20:22:04.425Z,45.00
2022-12-08T20:24:27.316Z,48.13
2022-12-08T20:26:50.131Z,45.83
2022-12-08T20:29:17.016Z,47.60
2022-12-08T20:32:21.736Z,52.00
2022-12-08T20:34:44.830Z,45.92
2022-12-08T20:37:07.667Z,50.63
2022-12-08T20:39:31.535Z,52.13
2022-12-08T20:41:56.053Z,49.90
2022-12-08T20:44:18.809Z,52.88
2022-12-08T20:46:46.249Z,49.38
2022-12-08T20:49:13.159Z,51.93
2022-12-08T20:51:36.276Z,47.83
2022-12-08T20:53:59.565Z,54.00
2022-12-08T20:56:23.915Z,46.92
2022-12-08T20:58:47.105Z,50.95
2022-12-08T21:01:12.413Z,49.37
2022-12-08T21:03:36.563Z,51.55
2022-12-08T21:05:59.372Z,53.00
2022-12-08T21:08:25.387Z,51.42
2022-12-08T21:10:54.451Z,51.92
2022-12-08T21:13:17.333Z,52.40
2022-12-08T21:15:45.482Z,54.10
2022-12-08T21:18:08.377Z,49.60
2022-12-08T21:20:31.525Z,50.00
2022-12-08T21:22:54.945Z,49.72
2022-12-08T21:25:17.828Z,51.23
2022-12-08T21:27:40.737Z,50.65
2022-12-08T21:30:04.104Z,54.90
2022-12-08T21:32:30.313Z,57.15
2022-12-08T21:34:53.637Z,53.67
2022-12-08T21:37:17.755Z,52.07
2022-12-08T21:39:40.470Z,48.63
2022-12-08T21:42:22.930Z,51.15
2022-12-08T21:44:45.896Z,49.28
2022-12-08T21:47:08.531Z,52.80
2022-12-08T21:49:31.447Z,51.07
2022-12-08T21:51:54.111Z,55.65
2022-12-08T21:54:19.065Z,53.15
2022-12-08T21:56:44.817Z,53.13
2022-12-08T21:59:07.998Z,51.35
2022-12-08T22:01:30.717Z,51.73
2022-12-08T22:03:53.773Z,52.40
2022-12-08T22:06:16.447Z,51.25
2022-12-08T22:08:40.215Z,57.55
2022-12-08T22:11:03.234Z,54.78
2022-12-08T22:13:25.976Z,57.13
2022-12-08T22:16:02.681Z,54.55
2022-12-08T22:18:25.841Z,56.30
2022-12-08T22:20:48.653Z,58.72
2022-12-08T22:23:11.436Z,54.25
2022-12-08T22:25:34.131Z,55.80
2022-12-08T22:27:57.049Z,54.97
2022-12-08T22:30:19.906Z,55.92
2022-12-08T22:32:42.655Z,59.53
2022-12-08T22:35:05.851Z,56.63
2022-12-08T22:37:28.633Z,60.70
2022-12-08T22:39:51.294Z,53.67
2022-12-08T22:42:15.082Z,60.80
2022-12-08T22:44:37.582Z,62.55
2022-12-08T22:47:00.243Z,56.60
2022-12-08T22:49:26.057Z,65.17
2022-12-08T22:51:48.923Z,60.65
2022-12-08T22:54:12.208Z,59.00
2022-12-08T22:56:34.922Z,60.80
2022-12-08T22:58:58.168Z,56.35
2022-12-08T23:01:22.136Z,56.33
2022-12-08T23:03:44.819Z,57.17
2022-12-08T23:06:12.998Z,56.42
2022-12-08T23:08:35.905Z,57.00
2022-12-08T23:10:58.713Z,58.80
2022-12-08T23:13:22.082Z,54.27
2022-12-08T23:15:44.927Z,59.85
2022-12-08T23:18:08.006Z,53.13
2022-12-08T23:20:30.950Z,52.05
2022-12-08T23:22:54.610Z,54.28
2022-12-08T23:25:18.516Z,57.40
2022-12-08T23:27:41.225Z,53.53
2022-12-08T23:30:07.288Z,50.47
2022-12-08T23:32:30.270Z,53.25
2022-12-08T23:34:53.036Z,49.75
2022-12-08T23:37:16.016Z,54.00
2022-12-08T23:39:38.985Z,57.72
2022-12-08T23:42:01.537Z,55.75
2022-12-08T23:44:24.392Z,52.30
2022-12-08T23:46:46.985Z,53.53
2022-12-08T23:49:11.098Z,55.90
2022-12-08T23:51:33.614Z,57.30
2022-12-08T23:53:56.265Z,58.15
2022-12-08T23:56:19.291Z,56.13
2022-12-08T23:58:43.623Z,61.15
